Floyds Knobs, Indiana
Current Conditions -  °F | °C
As of 4:56 PM on Friday 31 Oct 2014 (Local Time) from KSDF Reporting Station
Broken Clouds Broken Clouds  
Wind Chill: 37°   Ceiling: 3000
Heat Index: 44°   Visibility: 10mi
Dew Point: 35°   Wind: 14mph
Humidity: 71%   Direction: 310°NW
Pressure: 30.01"   Gusts: 24mph
Location:  38.32°N, 85.87°W
Report Text: KSDF 312056Z 31012G21KT 270V330 10SM SCT023 BKN030 BKN060 BKN200 07/02 A3001 RMK AO2 RAE11PLE01 SLP163 P0000 60004 T00670017 50007
Loading
Personal Weather Stations






























Interactive Weather Map
Tropical Storm Tracking
New forecast layout! Learn more

10-Day Weather Forecast

Advertisements
Track Severe Weather on mobile